Ramah Community, New Mexico
Current Conditions -  °F | °C
As of 4:53 AM on Sunday 23 Nov 2014 (Local Time) from KGUP Reporting Station
Broken Clouds Broken Clouds  
Wind Chill: 26°   Ceiling: 7500
Heat Index: 35°   Visibility: 10mi
Dew Point: 19°   Wind: 13mph
Humidity: 52%   Direction: 230°SW
Pressure: 29.88"   Gusts: NA
Location:  35.0898°N, 108.763°W
Report Text: KGUP 231153Z AUTO 23011KT 10SM BKN075 02/M07 A2988 RMK AO2 SLP080 T00171072 10050 20011 55004
Loading
Personal Weather Stations






























Interactive Weather Map New forecast layout! Learn more

10-Day Weather Forecast

Advertisements
Track Severe Weather on mobile